KMVE/MVE METAR and TAF weather

Enter ICAO airport designator
Station Type Date Time Source
KMVE METAR 2020/07/07 10:15 UTC NOAA

KMVE 071015Z AUTO 23005KT 10SM VCTS CLR 21/20 A2995 RMK AO2 LTG DSNT S AND SW


Station Type Date Time Source
KMVE Decoded METAR 2020/07/07 10:15 UTC NOAA

Montevideo, Montevideo-Chippewa County Airport, MN, United States (KMVE) 44-58N 095-43W
Jul 07, 2020 - 06:15 AM EDT / 2020.07.07 1015 UTC
Wind: from the SW (230 degrees) at 6 MPH (5 KT):0
Visibility: 10 mile(s):0
Sky conditions: clear
Weather: thunder in the vicinity; Lightning observed
Temperature: 69 F (21 C)
Dew Point: 68 F (20 C)
Relative Humidity: 94%
Pressure (altimeter): 29.95 in. Hg (1014 hPa)
ob: KMVE 071015Z AUTO 23005KT 10SM VCTS CLR 21/20 A2995 RMK AO2 LTG DSNT S AND SW
cycle: 10

Station Type Date Time Source
KMVE TAF UTC NOAA

Error!

Example: see airport list